Johann Essberger — CQKG — position and weather

sailwx.info

Track history (hours):
 
Tides and Currents Weather Stations Pressure Air Temp Water Temp Dewpoint Dewpoint Depression Visibility Wind Speed Wind Dir Waves Ship Positions

Johann Essberger

Last reported at 2015-Feb-28 00:32 UTC. Time now 2015-Feb-28 06:58 UTC.
Position N 51°53' E 004°17'.

Length 100 m; draft 7 m.

Type: Ship (hazmat cat C). MMSI: 255804460.

Date/timePositionNaut miles runAvg speedWind from/ knotsBaromVisibWave heightAir tempDewpointWater temp
2015-Feb-28 00:32N 51°53' E 004°17'3 2.8
2015-Feb-27 23:33N 51°55' E 004°14'1312.8
2015-Feb-27 22:33N 52°01' E 003°55'1111.1
2015-Feb-27 21:33N 52°10' E 003°45'1 0.6
2015-Feb-27 20:28N 52°11' E 003°44'0 0.1
2015-Feb-27 18:19N 52°10' E 003°44'0 0.0
2015-Feb-27 16:28N 52°10' E 003°44'0 0.0
2015-Feb-27 14:10N 52°10' E 003°44'0 0.0
2015-Feb-27 11:16N 52°10' E 003°44'0 0.0
2015-Feb-27 10:31N 52°10' E 003°44'0 0.0
2015-Feb-27 08:16N 52°10' E 003°44'0 0.0
2015-Feb-27 07:25N 52°10' E 003°44'0 0.1
2015-Feb-27 06:31N 52°10' E 003°44'0 0.0
2015-Feb-27 05:19N 52°10' E 003°44'0 0.0
2015-Feb-27 04:31N 52°10' E 003°44'0 0.0
2015-Feb-27 02:04N 52°10' E 003°44'0 0.0
2015-Feb-26 23:19N 52°10' E 003°44'0 0.0
2015-Feb-26 22:22N 52°10' E 003°44'0 0.0
2015-Feb-26 21:31N 52°11' E 003°44'0 0.0
2015-Feb-26 20:31N 52°11' E 003°44'0 0.0
2015-Feb-26 18:31N 52°11' E 003°44'0 0.0
2015-Feb-26 15:16N 52°11' E 003°44'0 0.0
2015-Feb-26 14:28N 52°11' E 003°44'0 0.0
2015-Feb-26 11:28N 52°11' E 003°44'0 0.0
2015-Feb-26 05:07N 52°11' E 003°44'0 0.1
2015-Feb-26 03:25N 52°10' E 003°44'0 0.0
2015-Feb-26 02:28N 52°10' E 003°44'0 0.0
2015-Feb-26 00:28N 52°10' E 003°44'0 0.1
2015-Feb-25 23:16N 52°11' E 003°44'0 0.0
2015-Feb-25 19:22N 52°11' E 003°44'0 0.0
2015-Feb-25 17:25N 52°11' E 003°44'10 5.5
2015-Feb-25 15:33N 52°21' E 003°48'3310.7
2015-Feb-25 12:25N 52°53' E 003°59'44 9.1
2015-Feb-25 07:33N 53°30' E 004°42'9 9.5
2015-Feb-25 06:33N 53°33' E 004°56'10 9.7
2015-Feb-25 05:33N 53°37' E 005°12'9 9.5
2015-Feb-25 04:33N 53°40' E 005°27'9 9.2
2015-Feb-25 03:33N 53°42' E 005°42'9 8.7
2015-Feb-25 02:33N 53°45' E 005°56'49 8.0
2015-Feb-24 20:28N 53°58' E 007°15'910.3
2015-Feb-24 19:33N 54°00' E 007°30'1010.1
2015-Feb-24 18:33N 54°02' E 007°47'1010.3
2015-Feb-24 17:33N 54°01' E 008°05'1110.9
2015-Feb-24 16:33N 53°60' E 008°23'1211.7
2015-Feb-24 15:33N 53°55' E 008°41'10 9.7
2015-Feb-24 14:33N 53°51' E 008°56'8 7.8
2015-Feb-24 13:33N 53°54' E 009°09'0 0.0
2015-Feb-24 12:33N 53°54' E 009°09'5 4.9
2015-Feb-24 11:33N 53°57' E 009°14'6 5.5
2015-Feb-24 10:33N 54°02' E 009°18'5 4.7
2015-Feb-24 09:26N 54°07' E 009°20'7 8.1
2015-Feb-24 08:33N 54°11' E 009°30'8 8.0
2015-Feb-24 07:33N 54°17' E 009°39'7 7.4
2015-Feb-24 06:33N 54°22' E 009°49'7 7.5
2015-Feb-24 05:33N 54°22' E 010°02'4 4.0
2015-Feb-24 04:33N 54°22' E 010°08'2 1.9
2015-Feb-24 03:33N 54°23' E 010°11'9 9.4
2015-Feb-24 02:33N 54°31' E 010°20'9 8.5
2015-Feb-24 01:33N 54°34' E 010°34'9 8.4
2015-Feb-24 00:28N 54°35' E 010°49'8 8.8
2015-Feb-23 23:33N 54°36' E 011°03'9 8.8
2015-Feb-23 22:33N 54°34' E 011°18'9 9.2
2015-Feb-23 21:33N 54°30' E 011°32'1010.4
2015-Feb-23 20:33N 54°26' E 011°49'1110.8
2015-Feb-23 19:33N 54°27' E 012°07'59 9.6
2015-Feb-23 13:24N 54°58' E 013°34'8 8.8
2015-Feb-23 12:32N 55°01' E 013°46'8 8.5
2015-Feb-23 11:34N 55°04' E 013°60'7 7.4
2015-Feb-23 10:33N 55°09' E 014°09'7 6.7
2015-Feb-23 09:33N 55°14' E 014°17'6 6.4
2015-Feb-23 08:33N 55°19' E 014°23'7 7.2
2015-Feb-23 07:33N 55°25' E 014°31'8 8.2
2015-Feb-23 06:34N 55°29' E 014°43'9 9.4
2015-Feb-23 05:33N 55°34' E 014°57'9 9.4
2015-Feb-23 04:33N 55°39' E 015°12'351 8.9
2015-Feb-21 13:12N 59°37' E 023°13'710.0
2015-Feb-21 12:33N 59°39' E 023°26'10 9.8
2015-Feb-21 11:33N 59°42' E 023°44'11 9.8
2015-Feb-21 10:29N 59°45' E 024°04'2310.1
2015-Feb-21 08:10N 59°50' E 024°50'37 1.7
2015-Feb-20 10:29N 60°03' E 025°59'9 9.4
2015-Feb-20 09:33N 60°07' E 026°13'9 9.4
2015-Feb-20 08:33N 60°14' E 026°25'1212.2
2015-Feb-20 07:33N 60°23' E 026°44'6 6.4
2015-Feb-20 06:33N 60°26' E 026°55'0 0.0
2015-Feb-19 11:34N 60°26' E 026°55'8 8.4
2015-Feb-19 10:33N 60°22' E 026°40'1312.8
2015-Feb-19 09:33N 60°12' E 026°23'58 9.6
2015-Feb-19 03:33N 59°46' E 024°41'1010.6
2015-Feb-19 02:33N 59°43' E 024°21'  
Track history (hours):
 
Tides and Currents Weather Stations Pressure Air Temp Water Temp Dewpoint Dewpoint Depression Visibility Wind Speed Wind Dir Waves Ship Positions

Johann Essberger

Last reported at 2015-Feb-28 00:32 UTC. Time now 2015-Feb-28 06:58 UTC.
Position N 51°53' E 004°17'.

Length 100 m; draft 7 m.

Type: Ship (hazmat cat C). MMSI: 255804460.

Date/timePositionNaut miles runAvg speedWind from/ knotsBaromVisibWave heightAir tempDewpointWater temp
2015-Feb-28 00:32N 51°53' E 004°17'3 2.8
2015-Feb-27 23:33N 51°55' E 004°14'1312.8
2015-Feb-27 22:33N 52°01' E 003°55'1111.1
2015-Feb-27 21:33N 52°10' E 003°45'1 0.6
2015-Feb-27 20:28N 52°11' E 003°44'0 0.1
2015-Feb-27 18:19N 52°10' E 003°44'0 0.0
2015-Feb-27 16:28N 52°10' E 003°44'0 0.0
2015-Feb-27 14:10N 52°10' E 003°44'0 0.0
2015-Feb-27 11:16N 52°10' E 003°44'0 0.0
2015-Feb-27 10:31N 52°10' E 003°44'0 0.0
2015-Feb-27 08:16N 52°10' E 003°44'0 0.0
2015-Feb-27 07:25N 52°10' E 003°44'0 0.1
2015-Feb-27 06:31N 52°10' E 003°44'0 0.0
2015-Feb-27 05:19N 52°10' E 003°44'0 0.0
2015-Feb-27 04:31N 52°10' E 003°44'0 0.0
2015-Feb-27 02:04N 52°10' E 003°44'0 0.0
2015-Feb-26 23:19N 52°10' E 003°44'0 0.0
2015-Feb-26 22:22N 52°10' E 003°44'0 0.0
2015-Feb-26 21:31N 52°11' E 003°44'0 0.0
2015-Feb-26 20:31N 52°11' E 003°44'0 0.0
2015-Feb-26 18:31N 52°11' E 003°44'0 0.0
2015-Feb-26 15:16N 52°11' E 003°44'0 0.0
2015-Feb-26 14:28N 52°11' E 003°44'0 0.0
2015-Feb-26 11:28N 52°11' E 003°44'0 0.0
2015-Feb-26 05:07N 52°11' E 003°44'0 0.1
2015-Feb-26 03:25N 52°10' E 003°44'0 0.0
2015-Feb-26 02:28N 52°10' E 003°44'0 0.0
2015-Feb-26 00:28N 52°10' E 003°44'0 0.1
2015-Feb-25 23:16N 52°11' E 003°44'0 0.0
2015-Feb-25 19:22N 52°11' E 003°44'0 0.0
2015-Feb-25 17:25N 52°11' E 003°44'10 5.5
2015-Feb-25 15:33N 52°21' E 003°48'3310.7
2015-Feb-25 12:25N 52°53' E 003°59'44 9.1
2015-Feb-25 07:33N 53°30' E 004°42'9 9.5
2015-Feb-25 06:33N 53°33' E 004°56'10 9.7
2015-Feb-25 05:33N 53°37' E 005°12'9 9.5
2015-Feb-25 04:33N 53°40' E 005°27'9 9.2
2015-Feb-25 03:33N 53°42' E 005°42'9 8.7
2015-Feb-25 02:33N 53°45' E 005°56'49 8.0
2015-Feb-24 20:28N 53°58' E 007°15'910.3
2015-Feb-24 19:33N 54°00' E 007°30'1010.1
2015-Feb-24 18:33N 54°02' E 007°47'1010.3
2015-Feb-24 17:33N 54°01' E 008°05'1110.9
2015-Feb-24 16:33N 53°60' E 008°23'1211.7
2015-Feb-24 15:33N 53°55' E 008°41'10 9.7
2015-Feb-24 14:33N 53°51' E 008°56'8 7.8
2015-Feb-24 13:33N 53°54' E 009°09'0 0.0
2015-Feb-24 12:33N 53°54' E 009°09'5 4.9
2015-Feb-24 11:33N 53°57' E 009°14'6 5.5
2015-Feb-24 10:33N 54°02' E 009°18'5 4.7
2015-Feb-24 09:26N 54°07' E 009°20'7 8.1
2015-Feb-24 08:33N 54°11' E 009°30'8 8.0
2015-Feb-24 07:33N 54°17' E 009°39'7 7.4
2015-Feb-24 06:33N 54°22' E 009°49'7 7.5
2015-Feb-24 05:33N 54°22' E 010°02'4 4.0
2015-Feb-24 04:33N 54°22' E 010°08'2 1.9
2015-Feb-24 03:33N 54°23' E 010°11'9 9.4
2015-Feb-24 02:33N 54°31' E 010°20'9 8.5
2015-Feb-24 01:33N 54°34' E 010°34'9 8.4
2015-Feb-24 00:28N 54°35' E 010°49'8 8.8
2015-Feb-23 23:33N 54°36' E 011°03'9 8.8
2015-Feb-23 22:33N 54°34' E 011°18'9 9.2
2015-Feb-23 21:33N 54°30' E 011°32'1010.4
2015-Feb-23 20:33N 54°26' E 011°49'1110.8
2015-Feb-23 19:33N 54°27' E 012°07'59 9.6
2015-Feb-23 13:24N 54°58' E 013°34'8 8.8
2015-Feb-23 12:32N 55°01' E 013°46'8 8.5
2015-Feb-23 11:34N 55°04' E 013°60'7 7.4
2015-Feb-23 10:33N 55°09' E 014°09'7 6.7
2015-Feb-23 09:33N 55°14' E 014°17'6 6.4
2015-Feb-23 08:33N 55°19' E 014°23'7 7.2
2015-Feb-23 07:33N 55°25' E 014°31'8 8.2
2015-Feb-23 06:34N 55°29' E 014°43'9 9.4
2015-Feb-23 05:33N 55°34' E 014°57'9 9.4
2015-Feb-23 04:33N 55°39' E 015°12'351 8.9
2015-Feb-21 13:12N 59°37' E 023°13'710.0
2015-Feb-21 12:33N 59°39' E 023°26'10 9.8
2015-Feb-21 11:33N 59°42' E 023°44'11 9.8
2015-Feb-21 10:29N 59°45' E 024°04'2310.1
2015-Feb-21 08:10N 59°50' E 024°50'37 1.7
2015-Feb-20 10:29N 60°03' E 025°59'9 9.4
2015-Feb-20 09:33N 60°07' E 026°13'9 9.4
2015-Feb-20 08:33N 60°14' E 026°25'1212.2
2015-Feb-20 07:33N 60°23' E 026°44'6 6.4
2015-Feb-20 06:33N 60°26' E 026°55'0 0.0
2015-Feb-19 11:34N 60°26' E 026°55'8 8.4
2015-Feb-19 10:33N 60°22' E 026°40'1312.8
2015-Feb-19 09:33N 60°12' E 026°23'58 9.6
2015-Feb-19 03:33N 59°46' E 024°41'1010.6
2015-Feb-19 02:33N 59°43' E 024°21'  

Dump ship's entire track history